sensor_id;sensor_type;location;lat;lon;timestamp;P1;durP1;ratioP1;P2;durP2;ratioP2
1679;SDS011;838;51.794;12.258;2023-09-08T00:00:56;6.40;;;4.50;;
1679;SDS011;838;51.794;12.258;2023-09-08T00:03:22;6.80;;;5.87;;
1679;SDS011;838;51.794;12.258;2023-09-08T00:05:48;6.03;;;5.30;;
1679;SDS011;838;51.794;12.258;2023-09-08T00:08:14;8.07;;;5.70;;
1679;SDS011;838;51.794;12.258;2023-09-08T00:10:40;7.30;;;5.60;;
1679;SDS011;838;51.794;12.258;2023-09-08T00:13:06;7.20;;;5.20;;
1679;SDS011;838;51.794;12.258;2023-09-08T00:15:34;7.43;;;6.20;;
1679;SDS011;838;51.794;12.258;2023-09-08T00:18:00;6.63;;;5.70;;
1679;SDS011;838;51.794;12.258;2023-09-08T00:20:26;6.00;;;5.20;;
1679;SDS011;838;51.794;12.258;2023-09-08T00:22:52;6.80;;;4.63;;
1679;SDS011;838;51.794;12.258;2023-09-08T00:25:19;5.87;;;4.60;;
1679;SDS011;838;51.794;12.258;2023-09-08T00:27:44;6.03;;;4.53;;
1679;SDS011;838;51.794;12.258;2023-09-08T00:30:13;6.67;;;5.43;;
1679;SDS011;838;51.794;12.258;2023-09-08T00:32:42;7.50;;;5.10;;
1679;SDS011;838;51.794;12.258;2023-09-08T00:35:10;6.70;;;5.10;;
1679;SDS011;838;51.794;12.258;2023-09-08T00:37:39;7.97;;;5.83;;
1679;SDS011;838;51.794;12.258;2023-09-08T00:40:05;5.90;;;4.90;;
1679;SDS011;838;51.794;12.258;2023-09-08T00:42:33;8.70;;;5.73;;
1679;SDS011;838;51.794;12.258;2023-09-08T00:44:59;7.80;;;5.17;;
1679;SDS011;838;51.794;12.258;2023-09-08T00:47:24;8.37;;;5.47;;
1679;SDS011;838;51.794;12.258;2023-09-08T00:49:50;7.10;;;5.37;;
1679;SDS011;838;51.794;12.258;2023-09-08T00:52:16;6.30;;;4.77;;
1679;SDS011;838;51.794;12.258;2023-09-08T00:54:42;7.53;;;5.73;;
1679;SDS011;838;51.794;12.258;2023-09-08T00:57:08;7.50;;;5.90;;
1679;SDS011;838;51.794;12.258;2023-09-08T00:59:34;8.50;;;5.23;;
1679;SDS011;838;51.794;12.258;2023-09-08T01:02:04;9.80;;;5.33;;
1679;SDS011;838;51.794;12.258;2023-09-08T01:04:30;8.67;;;6.23;;
1679;SDS011;838;51.794;12.258;2023-09-08T01:06:56;6.90;;;5.70;;
1679;SDS011;838;51.794;12.258;2023-09-08T01:09:23;7.80;;;5.73;;
1679;SDS011;838;51.794;12.258;2023-09-08T01:11:49;7.03;;;5.07;;
1679;SDS011;838;51.794;12.258;2023-09-08T01:14:19;8.23;;;6.27;;
1679;SDS011;838;51.794;12.258;2023-09-08T01:16:45;7.80;;;6.20;;
1679;SDS011;838;51.794;12.258;2023-09-08T01:19:11;7.53;;;5.83;;
1679;SDS011;838;51.794;12.258;2023-09-08T01:26:43;9.20;;;5.70;;
1679;SDS011;838;51.794;12.258;2023-09-08T01:29:09;8.50;;;6.30;;
1679;SDS011;838;51.794;12.258;2023-09-08T01:31:37;8.40;;;6.50;;
1679;SDS011;838;51.794;12.258;2023-09-08T01:34:03;8.53;;;5.83;;
1679;SDS011;838;51.794;12.258;2023-09-08T01:36:31;8.07;;;6.00;;
1679;SDS011;838;51.794;12.258;2023-09-08T01:38:59;6.77;;;5.67;;
1679;SDS011;838;51.794;12.258;2023-09-08T01:41:25;8.20;;;6.13;;
1679;SDS011;838;51.794;12.258;2023-09-08T01:43:51;9.47;;;6.43;;
1679;SDS011;838;51.794;12.258;2023-09-08T01:46:19;10.50;;;5.63;;
1679;SDS011;838;51.794;12.258;2023-09-08T01:48:48;9.77;;;5.90;;
1679;SDS011;838;51.794;12.258;2023-09-08T01:51:16;7.80;;;5.33;;
1679;SDS011;838;51.794;12.258;2023-09-08T01:53:42;8.70;;;6.17;;
1679;SDS011;838;51.794;12.258;2023-09-08T01:56:08;8.20;;;6.40;;
1679;SDS011;838;51.794;12.258;2023-09-08T01:58:33;10.07;;;7.03;;
1679;SDS011;838;51.794;12.258;2023-09-08T02:00:59;7.03;;;5.90;;
1679;SDS011;838;51.794;12.258;2023-09-08T02:03:30;9.23;;;6.73;;
1679;SDS011;838;51.794;12.258;2023-09-08T02:05:57;9.00;;;7.10;;
1679;SDS011;838;51.794;12.258;2023-09-08T02:08:23;10.00;;;6.97;;
1679;SDS011;838;51.794;12.258;2023-09-08T02:10:48;8.07;;;6.47;;
1679;SDS011;838;51.794;12.258;2023-09-08T02:13:14;8.50;;;6.10;;
1679;SDS011;838;51.794;12.258;2023-09-08T02:15:40;8.33;;;6.33;;
1679;SDS011;838;51.794;12.258;2023-09-08T02:18:08;10.07;;;6.67;;
1679;SDS011;838;51.794;12.258;2023-09-08T02:20:34;8.70;;;6.10;;
1679;SDS011;838;51.794;12.258;2023-09-08T02:23:03;8.13;;;6.70;;
1679;SDS011;838;51.794;12.258;2023-09-08T02:25:41;7.67;;;6.33;;
1679;SDS011;838;51.794;12.258;2023-09-08T02:28:07;7.80;;;6.20;;
1679;SDS011;838;51.794;12.258;2023-09-08T02:30:32;9.63;;;6.87;;
1679;SDS011;838;51.794;12.258;2023-09-08T02:32:58;7.23;;;5.70;;
1679;SDS011;838;51.794;12.258;2023-09-08T02:35:24;7.90;;;6.63;;
1679;SDS011;838;51.794;12.258;2023-09-08T02:37:50;9.47;;;6.73;;
1679;SDS011;838;51.794;12.258;2023-09-08T02:40:17;8.37;;;6.03;;
1679;SDS011;838;51.794;12.258;2023-09-08T02:42:46;7.77;;;6.10;;
1679;SDS011;838;51.794;12.258;2023-09-08T02:45:12;10.53;;;6.73;;
1679;SDS011;838;51.794;12.258;2023-09-08T02:47:37;8.27;;;5.83;;
1679;SDS011;838;51.794;12.258;2023-09-08T02:50:03;7.33;;;5.83;;
1679;SDS011;838;51.794;12.258;2023-09-08T02:52:29;9.37;;;6.20;;
1679;SDS011;838;51.794;12.258;2023-09-08T02:54:58;7.00;;;5.60;;
1679;SDS011;838;51.794;12.258;2023-09-08T02:57:24;7.60;;;5.50;;
1679;SDS011;838;51.794;12.258;2023-09-08T02:59:50;7.60;;;5.87;;
1679;SDS011;838;51.794;12.258;2023-09-08T03:02:16;9.20;;;5.50;;
1679;SDS011;838;51.794;12.258;2023-09-08T03:04:42;10.43;;;6.07;;
1679;SDS011;838;51.794;12.258;2023-09-08T03:07:11;7.13;;;5.00;;
1679;SDS011;838;51.794;12.258;2023-09-08T03:09:37;8.33;;;5.93;;
1679;SDS011;838;51.794;12.258;2023-09-08T03:12:03;9.10;;;6.13;;
1679;SDS011;838;51.794;12.258;2023-09-08T03:14:31;7.50;;;6.03;;
1679;SDS011;838;51.794;12.258;2023-09-08T03:16:57;7.67;;;5.57;;
1679;SDS011;838;51.794;12.258;2023-09-08T03:19:23;7.90;;;6.00;;
1679;SDS011;838;51.794;12.258;2023-09-08T03:21:52;8.03;;;6.50;;
1679;SDS011;838;51.794;12.258;2023-09-08T03:24:17;9.60;;;6.40;;
1679;SDS011;838;51.794;12.258;2023-09-08T03:26:46;9.80;;;6.63;;
1679;SDS011;838;51.794;12.258;2023-09-08T03:29:12;8.23;;;6.13;;
1679;SDS011;838;51.794;12.258;2023-09-08T03:31:38;9.47;;;5.70;;
1679;SDS011;838;51.794;12.258;2023-09-08T03:34:04;7.27;;;5.60;;
1679;SDS011;838;51.794;12.258;2023-09-08T03:36:30;8.93;;;6.10;;
1679;SDS011;838;51.794;12.258;2023-09-08T03:38:56;8.43;;;5.50;;
1679;SDS011;838;51.794;12.258;2023-09-08T03:41:23;8.63;;;6.13;;
1679;SDS011;838;51.794;12.258;2023-09-08T03:43:52;9.20;;;6.87;;
1679;SDS011;838;51.794;12.258;2023-09-08T03:46:17;12.23;;;6.50;;
1679;SDS011;838;51.794;12.258;2023-09-08T03:48:43;8.33;;;6.00;;
1679;SDS011;838;51.794;12.258;2023-09-08T03:51:08;8.80;;;6.90;;
1679;SDS011;838;51.794;12.258;2023-09-08T03:53:34;9.97;;;7.27;;
1679;SDS011;838;51.794;12.258;2023-09-08T03:56:00;9.07;;;6.77;;
1679;SDS011;838;51.794;12.258;2023-09-08T03:58:26;8.10;;;6.87;;
1679;SDS011;838;51.794;12.258;2023-09-08T04:00:51;10.13;;;7.10;;
1679;SDS011;838;51.794;12.258;2023-09-08T04:03:17;7.70;;;6.63;;
1679;SDS011;838;51.794;12.258;2023-09-08T04:05:43;10.83;;;7.30;;
1679;SDS011;838;51.794;12.258;2023-09-08T04:08:08;10.20;;;6.90;;
1679;SDS011;838;51.794;12.258;2023-09-08T04:10:34;9.87;;;7.00;;
1679;SDS011;838;51.794;12.258;2023-09-08T04:13:00;7.70;;;6.73;;
1679;SDS011;838;51.794;12.258;2023-09-08T04:15:26;8.93;;;7.07;;
1679;SDS011;838;51.794;12.258;2023-09-08T04:17:51;7.70;;;6.37;;
1679;SDS011;838;51.794;12.258;2023-09-08T04:20:17;9.90;;;7.50;;
1679;SDS011;838;51.794;12.258;2023-09-08T04:22:43;7.90;;;6.20;;
1679;SDS011;838;51.794;12.258;2023-09-08T04:25:09;8.37;;;6.73;;
1679;SDS011;838;51.794;12.258;2023-09-08T04:27:36;8.17;;;5.63;;
1679;SDS011;838;51.794;12.258;2023-09-08T04:30:02;8.57;;;6.63;;
1679;SDS011;838;51.794;12.258;2023-09-08T04:32:29;6.30;;;5.10;;
1679;SDS011;838;51.794;12.258;2023-09-08T04:34:55;7.27;;;5.40;;
1679;SDS011;838;51.794;12.258;2023-09-08T04:37:20;6.33;;;5.07;;
1679;SDS011;838;51.794;12.258;2023-09-08T04:39:46;7.93;;;5.80;;
1679;SDS011;838;51.794;12.258;2023-09-08T04:42:12;7.20;;;5.73;;
1679;SDS011;838;51.794;12.258;2023-09-08T04:44:38;9.13;;;6.50;;
1679;SDS011;838;51.794;12.258;2023-09-08T04:47:04;10.30;;;5.77;;
1679;SDS011;838;51.794;12.258;2023-09-08T04:49:30;9.60;;;6.30;;
1679;SDS011;838;51.794;12.258;2023-09-08T04:51:59;8.30;;;6.40;;
1679;SDS011;838;51.794;12.258;2023-09-08T04:54:24;6.30;;;5.37;;
1679;SDS011;838;51.794;12.258;2023-09-08T04:56:52;7.50;;;5.57;;
1679;SDS011;838;51.794;12.258;2023-09-08T04:59:19;7.47;;;5.20;;
1679;SDS011;838;51.794;12.258;2023-09-08T05:01:45;7.70;;;5.77;;
1679;SDS011;838;51.794;12.258;2023-09-08T05:04:10;10.43;;;6.97;;
1679;SDS011;838;51.794;12.258;2023-09-08T05:06:36;9.53;;;7.20;;
1679;SDS011;838;51.794;12.258;2023-09-08T05:09:02;7.33;;;6.33;;
1679;SDS011;838;51.794;12.258;2023-09-08T05:11:28;8.03;;;6.60;;
1679;SDS011;838;51.794;12.258;2023-09-08T05:13:53;8.03;;;6.73;;
1679;SDS011;838;51.794;12.258;2023-09-08T05:16:19;8.70;;;6.67;;
1679;SDS011;838;51.794;12.258;2023-09-08T05:19:01;9.30;;;7.50;;
1679;SDS011;838;51.794;12.258;2023-09-08T05:21:27;8.47;;;6.93;;
1679;SDS011;838;51.794;12.258;2023-09-08T05:23:52;10.50;;;7.93;;
1679;SDS011;838;51.794;12.258;2023-09-08T05:26:18;9.83;;;7.93;;
1679;SDS011;838;51.794;12.258;2023-09-08T05:28:44;10.77;;;8.70;;
1679;SDS011;838;51.794;12.258;2023-09-08T05:31:10;16.27;;;9.27;;
1679;SDS011;838;51.794;12.258;2023-09-08T05:33:35;12.00;;;8.87;;
1679;SDS011;838;51.794;12.258;2023-09-08T05:36:04;11.17;;;8.90;;
1679;SDS011;838;51.794;12.258;2023-09-08T05:38:36;10.80;;;9.70;;
1679;SDS011;838;51.794;12.258;2023-09-08T05:41:01;12.03;;;10.00;;
1679;SDS011;838;51.794;12.258;2023-09-08T05:43:27;12.80;;;9.87;;
1679;SDS011;838;51.794;12.258;2023-09-08T05:45:53;11.27;;;9.37;;
1679;SDS011;838;51.794;12.258;2023-09-08T05:48:19;11.80;;;10.10;;
1679;SDS011;838;51.794;12.258;2023-09-08T05:50:45;11.40;;;8.67;;
1679;SDS011;838;51.794;12.258;2023-09-08T05:53:10;9.60;;;7.53;;
1679;SDS011;838;51.794;12.258;2023-09-08T05:55:36;9.30;;;7.67;;
1679;SDS011;838;51.794;12.258;2023-09-08T05:58:14;9.17;;;7.07;;
1679;SDS011;838;51.794;12.258;2023-09-08T06:00:40;8.07;;;7.03;;
1679;SDS011;838;51.794;12.258;2023-09-08T06:03:06;9.27;;;6.20;;
1679;SDS011;838;51.794;12.258;2023-09-08T06:05:32;8.07;;;5.87;;
1679;SDS011;838;51.794;12.258;2023-09-08T06:08:00;7.70;;;5.87;;
1679;SDS011;838;51.794;12.258;2023-09-08T06:10:26;7.27;;;5.87;;
1679;SDS011;838;51.794;12.258;2023-09-08T06:12:51;9.67;;;7.17;;
1679;SDS011;838;51.794;12.258;2023-09-08T06:15:17;7.80;;;6.30;;
1679;SDS011;838;51.794;12.258;2023-09-08T06:17:43;6.47;;;5.00;;
1679;SDS011;838;51.794;12.258;2023-09-08T06:20:15;7.80;;;6.07;;
1679;SDS011;838;51.794;12.258;2023-09-08T06:22:52;7.37;;;5.10;;
1679;SDS011;838;51.794;12.258;2023-09-08T06:29:32;6.83;;;4.93;;
1679;SDS011;838;51.794;12.258;2023-09-08T06:32:48;6.80;;;5.93;;
1679;SDS011;838;51.794;12.258;2023-09-08T06:35:16;8.83;;;6.00;;
1679;SDS011;838;51.794;12.258;2023-09-08T06:38:06;7.40;;;5.80;;
1679;SDS011;838;51.794;12.258;2023-09-08T06:40:39;7.73;;;5.30;;
1679;SDS011;838;51.794;12.258;2023-09-08T06:43:05;8.20;;;5.90;;
1679;SDS011;838;51.794;12.258;2023-09-08T06:45:31;7.30;;;5.73;;
1679;SDS011;838;51.794;12.258;2023-09-08T06:47:56;9.07;;;7.80;;
1679;SDS011;838;51.794;12.258;2023-09-08T06:50:22;8.27;;;6.40;;
1679;SDS011;838;51.794;12.258;2023-09-08T06:52:49;7.00;;;6.20;;
1679;SDS011;838;51.794;12.258;2023-09-08T06:55:15;8.27;;;6.70;;
1679;SDS011;838;51.794;12.258;2023-09-08T06:57:45;10.00;;;6.07;;
1679;SDS011;838;51.794;12.258;2023-09-08T07:00:12;7.20;;;5.80;;
1679;SDS011;838;51.794;12.258;2023-09-08T07:02:42;7.70;;;5.70;;
1679;SDS011;838;51.794;12.258;2023-09-08T07:05:08;7.93;;;6.10;;
1679;SDS011;838;51.794;12.258;2023-09-08T07:07:34;9.03;;;6.87;;
1679;SDS011;838;51.794;12.258;2023-09-08T07:10:01;7.87;;;6.43;;
1679;SDS011;838;51.794;12.258;2023-09-08T07:12:30;7.00;;;5.77;;
1679;SDS011;838;51.794;12.258;2023-09-08T07:14:56;7.83;;;6.70;;
1679;SDS011;838;51.794;12.258;2023-09-08T07:17:22;7.43;;;6.30;;
1679;SDS011;838;51.794;12.258;2023-09-08T07:19:49;7.83;;;6.03;;
1679;SDS011;838;51.794;12.258;2023-09-08T07:22:15;7.70;;;6.13;;
1679;SDS011;838;51.794;12.258;2023-09-08T07:24:41;7.43;;;6.17;;
1679;SDS011;838;51.794;12.258;2023-09-08T07:27:07;7.40;;;5.83;;
1679;SDS011;838;51.794;12.258;2023-09-08T07:29:33;8.57;;;6.13;;
1679;SDS011;838;51.794;12.258;2023-09-08T07:32:04;8.93;;;6.63;;
1679;SDS011;838;51.794;12.258;2023-09-08T07:34:30;9.43;;;7.03;;
1679;SDS011;838;51.794;12.258;2023-09-08T07:36:56;7.13;;;5.47;;
1679;SDS011;838;51.794;12.258;2023-09-08T07:39:25;7.77;;;5.53;;
1679;SDS011;838;51.794;12.258;2023-09-08T07:41:51;9.50;;;5.80;;
1679;SDS011;838;51.794;12.258;2023-09-08T07:44:18;8.63;;;6.43;;
1679;SDS011;838;51.794;12.258;2023-09-08T07:46:44;7.07;;;5.30;;
1679;SDS011;838;51.794;12.258;2023-09-08T07:49:11;7.30;;;5.60;;
1679;SDS011;838;51.794;12.258;2023-09-08T07:51:37;8.73;;;6.40;;
1679;SDS011;838;51.794;12.258;2023-09-08T07:54:03;11.47;;;5.73;;
1679;SDS011;838;51.794;12.258;2023-09-08T07:56:29;7.80;;;5.90;;
1679;SDS011;838;51.794;12.258;2023-09-08T07:58:55;7.17;;;5.43;;
1679;SDS011;838;51.794;12.258;2023-09-08T08:01:23;7.50;;;5.67;;
1679;SDS011;838;51.794;12.258;2023-09-08T08:03:52;7.80;;;6.07;;
1679;SDS011;838;51.794;12.258;2023-09-08T08:06:18;8.07;;;6.17;;
1679;SDS011;838;51.794;12.258;2023-09-08T08:08:43;8.37;;;6.40;;
1679;SDS011;838;51.794;12.258;2023-09-08T08:11:12;7.87;;;6.03;;
1679;SDS011;838;51.794;12.258;2023-09-08T08:13:40;9.20;;;5.50;;
1679;SDS011;838;51.794;12.258;2023-09-08T08:16:06;10.50;;;5.57;;
1679;SDS011;838;51.794;12.258;2023-09-08T08:18:32;7.30;;;5.57;;
1679;SDS011;838;51.794;12.258;2023-09-08T08:20:57;7.67;;;6.30;;
1679;SDS011;838;51.794;12.258;2023-09-08T08:23:30;9.17;;;6.07;;
1679;SDS011;838;51.794;12.258;2023-09-08T08:25:57;9.10;;;6.00;;
1679;SDS011;838;51.794;12.258;2023-09-08T08:28:23;7.70;;;6.20;;
1679;SDS011;838;51.794;12.258;2023-09-08T08:30:51;7.70;;;5.40;;
1679;SDS011;838;51.794;12.258;2023-09-08T08:33:20;6.87;;;5.30;;
1679;SDS011;838;51.794;12.258;2023-09-08T08:35:50;12.00;;;6.00;;
1679;SDS011;838;51.794;12.258;2023-09-08T08:38:16;7.80;;;5.73;;
1679;SDS011;838;51.794;12.258;2023-09-08T08:40:42;6.93;;;4.87;;
1679;SDS011;838;51.794;12.258;2023-09-08T08:43:08;7.40;;;5.83;;
1679;SDS011;838;51.794;12.258;2023-09-08T08:45:34;7.17;;;5.27;;
1679;SDS011;838;51.794;12.258;2023-09-08T08:48:03;6.97;;;4.90;;
1679;SDS011;838;51.794;12.258;2023-09-08T08:50:33;7.20;;;5.70;;
1679;SDS011;838;51.794;12.258;2023-09-08T08:53:01;8.87;;;5.63;;
1679;SDS011;838;51.794;12.258;2023-09-08T08:55:30;6.37;;;4.40;;
1679;SDS011;838;51.794;12.258;2023-09-08T08:58:18;8.57;;;5.50;;
1679;SDS011;838;51.794;12.258;2023-09-08T09:00:50;5.83;;;4.60;;
1679;SDS011;838;51.794;12.258;2023-09-08T09:03:36;8.00;;;5.13;;
1679;SDS011;838;51.794;12.258;2023-09-08T09:06:12;7.40;;;4.73;;
1679;SDS011;838;51.794;12.258;2023-09-08T09:08:47;5.73;;;4.30;;
1679;SDS011;838;51.794;12.258;2023-09-08T09:11:13;7.40;;;4.50;;
1679;SDS011;838;51.794;12.258;2023-09-08T09:13:42;7.30;;;4.53;;
1679;SDS011;838;51.794;12.258;2023-09-08T09:16:15;5.90;;;4.67;;
1679;SDS011;838;51.794;12.258;2023-09-08T09:19:05;5.47;;;4.30;;
1679;SDS011;838;51.794;12.258;2023-09-08T09:21:44;6.40;;;4.20;;
1679;SDS011;838;51.794;12.258;2023-09-08T09:27:40;5.67;;;4.47;;
1679;SDS011;838;51.794;12.258;2023-09-08T09:30:17;6.50;;;4.17;;
1679;SDS011;838;51.794;12.258;2023-09-08T09:33:29;7.63;;;4.10;;
1679;SDS011;838;51.794;12.258;2023-09-08T09:35:58;4.90;;;3.97;;
1679;SDS011;838;51.794;12.258;2023-09-08T09:38:27;6.00;;;4.40;;
1679;SDS011;838;51.794;12.258;2023-09-08T09:40:54;5.93;;;4.00;;
1679;SDS011;838;51.794;12.258;2023-09-08T09:43:21;9.73;;;4.70;;
1679;SDS011;838;51.794;12.258;2023-09-08T09:45:48;8.03;;;4.37;;
1679;SDS011;838;51.794;12.258;2023-09-08T09:48:13;6.20;;;4.97;;
1679;SDS011;838;51.794;12.258;2023-09-08T09:50:41;6.27;;;4.40;;
1679;SDS011;838;51.794;12.258;2023-09-08T09:53:14;5.13;;;4.10;;
1679;SDS011;838;51.794;12.258;2023-09-08T09:55:42;6.30;;;4.40;;
1679;SDS011;838;51.794;12.258;2023-09-08T09:58:14;5.40;;;4.30;;
1679;SDS011;838;51.794;12.258;2023-09-08T10:00:41;6.60;;;4.90;;
1679;SDS011;838;51.794;12.258;2023-09-08T10:03:13;6.40;;;3.90;;
1679;SDS011;838;51.794;12.258;2023-09-08T10:05:39;5.23;;;3.67;;
1679;SDS011;838;51.794;12.258;2023-09-08T10:08:05;5.10;;;3.73;;
1679;SDS011;838;51.794;12.258;2023-09-08T10:10:32;4.83;;;3.47;;
1679;SDS011;838;51.794;12.258;2023-09-08T10:13:03;5.40;;;3.50;;
1679;SDS011;838;51.794;12.258;2023-09-08T10:15:33;4.80;;;3.47;;
1679;SDS011;838;51.794;12.258;2023-09-08T10:17:59;6.00;;;4.37;;
1679;SDS011;838;51.794;12.258;2023-09-08T10:20:28;5.10;;;3.40;;
1679;SDS011;838;51.794;12.258;2023-09-08T10:23:00;4.83;;;3.50;;
1679;SDS011;838;51.794;12.258;2023-09-08T10:25:59;5.20;;;3.40;;
1679;SDS011;838;51.794;12.258;2023-09-08T10:28:29;4.70;;;3.17;;
1679;SDS011;838;51.794;12.258;2023-09-08T10:31:06;4.90;;;3.33;;
1679;SDS011;838;51.794;12.258;2023-09-08T10:33:43;5.53;;;3.83;;
1679;SDS011;838;51.794;12.258;2023-09-08T10:36:22;4.70;;;2.83;;
1679;SDS011;838;51.794;12.258;2023-09-08T10:38:58;4.33;;;3.10;;
1679;SDS011;838;51.794;12.258;2023-09-08T10:42:25;6.10;;;3.80;;
1679;SDS011;838;51.794;12.258;2023-09-08T10:44:57;4.50;;;3.37;;
1679;SDS011;838;51.794;12.258;2023-09-08T10:47:54;7.27;;;3.20;;
1679;SDS011;838;51.794;12.258;2023-09-08T10:50:34;4.50;;;3.30;;
1679;SDS011;838;51.794;12.258;2023-09-08T10:53:16;7.13;;;4.50;;
1679;SDS011;838;51.794;12.258;2023-09-08T10:55:59;4.40;;;3.20;;
1679;SDS011;838;51.794;12.258;2023-09-08T10:58:45;5.03;;;3.70;;
1679;SDS011;838;51.794;12.258;2023-09-08T11:01:21;5.63;;;3.97;;
1679;SDS011;838;51.794;12.258;2023-09-08T11:04:01;4.90;;;3.53;;
1679;SDS011;838;51.794;12.258;2023-09-08T11:06:59;4.77;;;3.43;;
1679;SDS011;838;51.794;12.258;2023-09-08T11:12:26;4.70;;;2.83;;
1679;SDS011;838;51.794;12.258;2023-09-08T11:14:52;4.90;;;3.67;;
1679;SDS011;838;51.794;12.258;2023-09-08T11:17:19;6.33;;;4.40;;
1679;SDS011;838;51.794;12.258;2023-09-08T11:19:54;4.57;;;2.70;;
1679;SDS011;838;51.794;12.258;2023-09-08T11:22:24;5.33;;;3.20;;
1679;SDS011;838;51.794;12.258;2023-09-08T11:24:55;4.93;;;3.60;;
1679;SDS011;838;51.794;12.258;2023-09-08T11:27:28;4.67;;;3.50;;
1679;SDS011;838;51.794;12.258;2023-09-08T11:30:07;4.73;;;3.67;;
1679;SDS011;838;51.794;12.258;2023-09-08T11:32:34;7.13;;;4.10;;
1679;SDS011;838;51.794;12.258;2023-09-08T11:35:19;4.83;;;3.60;;
1679;SDS011;838;51.794;12.258;2023-09-08T11:41:03;4.77;;;3.20;;
1679;SDS011;838;51.794;12.258;2023-09-08T11:43:35;4.10;;;2.63;;
1679;SDS011;838;51.794;12.258;2023-09-08T11:46:23;7.07;;;3.40;;
1679;SDS011;838;51.794;12.258;2023-09-08T11:48:52;4.50;;;3.07;;
1679;SDS011;838;51.794;12.258;2023-09-08T11:51:44;4.00;;;3.20;;
1679;SDS011;838;51.794;12.258;2023-09-08T11:54:53;5.13;;;3.70;;
1679;SDS011;838;51.794;12.258;2023-09-08T11:57:34;6.07;;;3.50;;
1679;SDS011;838;51.794;12.258;2023-09-08T12:02:55;4.83;;;3.43;;
1679;SDS011;838;51.794;12.258;2023-09-08T12:08:37;4.90;;;3.77;;
1679;SDS011;838;51.794;12.258;2023-09-08T12:11:09;6.27;;;3.40;;
1679;SDS011;838;51.794;12.258;2023-09-08T12:14:29;4.80;;;3.17;;
1679;SDS011;838;51.794;12.258;2023-09-08T12:20:16;5.30;;;3.47;;
1679;SDS011;838;51.794;12.258;2023-09-08T12:22:47;5.23;;;3.17;;
1679;SDS011;838;51.794;12.258;2023-09-08T12:25:16;5.03;;;3.40;;
1679;SDS011;838;51.794;12.258;2023-09-08T12:27:46;4.13;;;3.10;;
1679;SDS011;838;51.794;12.258;2023-09-08T12:33:37;5.00;;;3.43;;
1679;SDS011;838;51.794;12.258;2023-09-08T12:36:16;4.27;;;2.70;;
1679;SDS011;838;51.794;12.258;2023-09-08T12:39:04;4.77;;;3.00;;
1679;SDS011;838;51.794;12.258;2023-09-08T12:44:54;7.13;;;2.90;;
1679;SDS011;838;51.794;12.258;2023-09-08T12:47:38;4.93;;;3.17;;
1679;SDS011;838;51.794;12.258;2023-09-08T12:50:13;4.20;;;2.97;;
1679;SDS011;838;51.794;12.258;2023-09-08T12:52:42;3.97;;;2.97;;
1679;SDS011;838;51.794;12.258;2023-09-08T12:55:08;4.00;;;2.20;;
1679;SDS011;838;51.794;12.258;2023-09-08T12:57:44;5.03;;;2.87;;
1679;SDS011;838;51.794;12.258;2023-09-08T13:00:24;4.83;;;2.90;;
1679;SDS011;838;51.794;12.258;2023-09-08T13:02:50;4.10;;;2.77;;
1679;SDS011;838;51.794;12.258;2023-09-08T13:05:23;3.93;;;2.50;;
1679;SDS011;838;51.794;12.258;2023-09-08T13:07:48;4.93;;;2.63;;
1679;SDS011;838;51.794;12.258;2023-09-08T13:10:19;4.10;;;2.67;;
1679;SDS011;838;51.794;12.258;2023-09-08T13:12:46;5.20;;;3.33;;
1679;SDS011;838;51.794;12.258;2023-09-08T13:18:14;4.20;;;2.70;;
1679;SDS011;838;51.794;12.258;2023-09-08T13:20:41;4.43;;;2.90;;
1679;SDS011;838;51.794;12.258;2023-09-08T13:23:26;3.67;;;2.57;;
1679;SDS011;838;51.794;12.258;2023-09-08T13:26:04;6.07;;;3.13;;
1679;SDS011;838;51.794;12.258;2023-09-08T13:31:42;4.27;;;2.60;;
1679;SDS011;838;51.794;12.258;2023-09-08T13:34:08;4.80;;;3.00;;
1679;SDS011;838;51.794;12.258;2023-09-08T13:36:44;4.70;;;2.93;;
1679;SDS011;838;51.794;12.258;2023-09-08T13:39:10;4.40;;;2.70;;
1679;SDS011;838;51.794;12.258;2023-09-08T13:41:46;3.77;;;2.80;;
1679;SDS011;838;51.794;12.258;2023-09-08T13:44:31;4.17;;;3.20;;
1679;SDS011;838;51.794;12.258;2023-09-08T13:47:00;7.03;;;2.77;;
1679;SDS011;838;51.794;12.258;2023-09-08T13:49:26;4.00;;;2.47;;
1679;SDS011;838;51.794;12.258;2023-09-08T13:52:01;4.57;;;2.80;;
1679;SDS011;838;51.794;12.258;2023-09-08T13:54:29;4.67;;;3.17;;
1679;SDS011;838;51.794;12.258;2023-09-08T13:57:14;5.27;;;3.00;;
1679;SDS011;838;51.794;12.258;2023-09-08T13:59:41;3.80;;;2.50;;
1679;SDS011;838;51.794;12.258;2023-09-08T14:02:15;5.37;;;3.30;;
1679;SDS011;838;51.794;12.258;2023-09-08T14:04:41;3.93;;;2.53;;
1679;SDS011;838;51.794;12.258;2023-09-08T14:07:10;5.13;;;3.40;;
1679;SDS011;838;51.794;12.258;2023-09-08T14:09:41;3.47;;;2.43;;
1679;SDS011;838;51.794;12.258;2023-09-08T14:12:20;3.90;;;2.60;;
1679;SDS011;838;51.794;12.258;2023-09-08T14:14:46;4.27;;;2.63;;
1679;SDS011;838;51.794;12.258;2023-09-08T14:17:13;5.93;;;2.90;;
1679;SDS011;838;51.794;12.258;2023-09-08T14:19:42;4.47;;;3.00;;
1679;SDS011;838;51.794;12.258;2023-09-08T14:22:08;5.00;;;3.03;;
1679;SDS011;838;51.794;12.258;2023-09-08T14:24:37;4.10;;;2.80;;
1679;SDS011;838;51.794;12.258;2023-09-08T14:27:21;4.37;;;2.63;;
1679;SDS011;838;51.794;12.258;2023-09-08T14:29:47;3.90;;;2.80;;
1679;SDS011;838;51.794;12.258;2023-09-08T14:32:12;4.27;;;2.83;;
1679;SDS011;838;51.794;12.258;2023-09-08T14:34:55;3.93;;;2.47;;
1679;SDS011;838;51.794;12.258;2023-09-08T14:37:24;4.23;;;3.07;;
1679;SDS011;838;51.794;12.258;2023-09-08T14:39:56;3.87;;;2.60;;
1679;SDS011;838;51.794;12.258;2023-09-08T14:42:22;3.93;;;2.90;;
1679;SDS011;838;51.794;12.258;2023-09-08T14:44:51;4.83;;;3.30;;
1679;SDS011;838;51.794;12.258;2023-09-08T14:47:17;4.30;;;3.27;;
1679;SDS011;838;51.794;12.258;2023-09-08T14:49:53;4.43;;;2.87;;
1679;SDS011;838;51.794;12.258;2023-09-08T14:52:31;3.87;;;2.77;;
1679;SDS011;838;51.794;12.258;2023-09-08T14:54:56;4.30;;;2.50;;
1679;SDS011;838;51.794;12.258;2023-09-08T14:57:25;4.20;;;2.93;;
1679;SDS011;838;51.794;12.258;2023-09-08T14:59:51;4.40;;;3.07;;
1679;SDS011;838;51.794;12.258;2023-09-08T15:02:20;6.20;;;3.10;;
1679;SDS011;838;51.794;12.258;2023-09-08T15:04:47;4.33;;;3.17;;
1679;SDS011;838;51.794;12.258;2023-09-08T15:07:32;6.43;;;3.13;;
1679;SDS011;838;51.794;12.258;2023-09-08T15:10:16;7.63;;;3.50;;
1679;SDS011;838;51.794;12.258;2023-09-08T15:12:48;7.20;;;3.10;;
1679;SDS011;838;51.794;12.258;2023-09-08T15:15:19;4.23;;;3.60;;
1679;SDS011;838;51.794;12.258;2023-09-08T15:17:54;6.00;;;3.70;;
1679;SDS011;838;51.794;12.258;2023-09-08T15:20:21;6.73;;;3.23;;
1679;SDS011;838;51.794;12.258;2023-09-08T15:26:41;8.37;;;3.00;;
1679;SDS011;838;51.794;12.258;2023-09-08T15:29:25;5.30;;;3.63;;
1679;SDS011;838;51.794;12.258;2023-09-08T15:32:06;4.70;;;3.13;;
1679;SDS011;838;51.794;12.258;2023-09-08T15:38:11;3.80;;;2.60;;
1679;SDS011;838;51.794;12.258;2023-09-08T15:43:46;4.40;;;2.97;;
1679;SDS011;838;51.794;12.258;2023-09-08T15:46:24;7.70;;;3.70;;
1679;SDS011;838;51.794;12.258;2023-09-08T15:48:56;6.30;;;2.97;;
1679;SDS011;838;51.794;12.258;2023-09-08T15:51:31;9.67;;;4.00;;
1679;SDS011;838;51.794;12.258;2023-09-08T15:54:00;6.13;;;3.50;;
1679;SDS011;838;51.794;12.258;2023-09-08T15:56:31;3.93;;;2.90;;
1679;SDS011;838;51.794;12.258;2023-09-08T15:58:57;3.27;;;2.30;;
1679;SDS011;838;51.794;12.258;2023-09-08T16:01:25;5.47;;;3.30;;
1679;SDS011;838;51.794;12.258;2023-09-08T16:03:59;4.60;;;3.03;;
1679;SDS011;838;51.794;12.258;2023-09-08T16:06:46;6.73;;;3.47;;
1679;SDS011;838;51.794;12.258;2023-09-08T16:09:15;5.40;;;3.40;;
1679;SDS011;838;51.794;12.258;2023-09-08T16:11:52;4.67;;;3.40;;
1679;SDS011;838;51.794;12.258;2023-09-08T16:14:41;4.47;;;3.13;;
1679;SDS011;838;51.794;12.258;2023-09-08T16:17:07;5.03;;;3.63;;
1679;SDS011;838;51.794;12.258;2023-09-08T16:19:36;8.07;;;3.00;;
1679;SDS011;838;51.794;12.258;2023-09-08T16:22:11;3.60;;;2.40;;
1679;SDS011;838;51.794;12.258;2023-09-08T16:24:40;4.50;;;3.13;;